createdAt,value
2022-11-24T17:26:48.755Z,96646.78
2022-11-24T17:29:50.788Z,96636.94
2022-11-24T17:32:56.751Z,96644.34
2022-11-24T17:36:01.405Z,96632.63
2022-11-24T17:39:07.178Z,96631.91
2022-11-24T17:42:08.834Z,96639.50
2022-11-24T17:45:10.576Z,96631.78
2022-11-24T17:48:12.935Z,96643.50
2022-11-24T17:51:15.860Z,96644.50
2022-11-24T17:54:45.268Z,96652.16
2022-11-24T17:57:39.472Z,96667.47
2022-11-24T18:00:41.054Z,96663.88
2022-11-24T18:03:42.664Z,96666.09
2022-11-24T18:06:44.521Z,96651.88
2022-11-24T18:09:46.036Z,96660.47
2022-11-24T18:12:47.700Z,96657.06
2022-11-24T18:15:49.201Z,96657.84
2022-11-24T18:19:07.039Z,96662.09
2022-11-24T18:22:09.694Z,96625.16
2022-11-24T18:25:11.376Z,96653.63
2022-11-24T18:28:12.924Z,96649.88
2022-11-24T18:31:15.381Z,96664.03
2022-11-24T18:34:16.960Z,96639.72
2022-11-24T18:37:18.558Z,96660.56
2022-11-24T18:40:20.110Z,96655.09
2022-11-24T18:43:22.244Z,96666.09
2022-11-24T18:46:23.880Z,96680.91
2022-11-24T18:49:25.469Z,96706.69
2022-11-24T18:52:27.079Z,96694.09
2022-11-24T18:55:28.670Z,96694.97
2022-11-24T18:58:31.340Z,96701.66
2022-11-24T19:01:33.052Z,96715.19
2022-11-24T19:04:34.927Z,96707.72
2022-11-24T19:07:37.374Z,96706.19
2022-11-24T19:10:39.257Z,96717.94
2022-11-24T19:13:40.906Z,96719.16
2022-11-24T19:16:42.687Z,96722.88
2022-11-24T19:19:44.408Z,96717.25
2022-11-24T19:22:45.951Z,96706.91
2022-11-24T19:25:47.616Z,96712.44
2022-11-24T19:28:49.246Z,96703.84
2022-11-24T19:31:50.882Z,96701.63
2022-11-24T19:34:52.476Z,96701.44
2022-11-24T19:37:55.870Z,96711.69
2022-11-24T19:41:04.327Z,96716.31
2022-11-24T19:44:06.359Z,96726.50
2022-11-24T19:47:07.919Z,96722.13
2022-11-24T19:50:10.649Z,96713.91
2022-11-24T19:53:12.267Z,96717.44
2022-11-24T19:56:14.643Z,96730.16
2022-11-24T19:59:16.208Z,96755.50
2022-11-24T20:02:18.241Z,96770.19
2022-11-24T20:05:19.818Z,96772.69
2022-11-24T20:08:21.407Z,96771.41
2022-11-24T20:11:22.975Z,96780.56
2022-11-24T20:14:24.545Z,96783.56
2022-11-24T20:17:26.169Z,96791.88
2022-11-24T20:20:27.724Z,96777.44
2022-11-24T20:23:29.260Z,96754.25
2022-11-24T20:26:32.148Z,96755.81
2022-11-24T20:29:33.985Z,96739.72
2022-11-24T20:32:35.573Z,96729.84
2022-11-24T20:35:37.124Z,96746.81
2022-11-24T20:38:39.014Z,96739.84
2022-11-24T20:41:41.301Z,96737.66
2022-11-24T20:44:42.831Z,96733.41
2022-11-24T20:47:44.379Z,96732.91
2022-11-24T20:50:51.150Z,96732.63
2022-11-24T20:53:54.028Z,96755.44
2022-11-24T20:56:55.634Z,96749.31
2022-11-24T20:59:57.172Z,96766.34
2022-11-24T21:02:58.835Z,96771.84
2022-11-24T21:06:00.632Z,96776.53
2022-11-24T21:09:04.160Z,96790.44
2022-11-24T21:12:06.055Z,96787.13
2022-11-24T21:15:07.904Z,96793.00
2022-11-24T21:18:09.445Z,96790.25
2022-11-24T21:21:11.717Z,96787.25
2022-11-24T21:24:14.129Z,96785.66
2022-11-24T21:27:15.668Z,96797.88
2022-11-24T21:30:17.262Z,96786.25
2022-11-24T21:33:19.864Z,96780.47
2022-11-24T21:36:25.350Z,96775.78
2022-11-24T21:39:27.205Z,96776.75
2022-11-24T21:42:28.855Z,96798.56
2022-11-24T21:45:30.517Z,96796.13
2022-11-24T21:48:32.727Z,96786.34
2022-11-24T21:51:34.263Z,96787.41
2022-11-24T21:54:36.077Z,96798.97
2022-11-24T21:57:38.567Z,96790.47
2022-11-24T22:00:40.202Z,96781.34
2022-11-24T22:03:41.919Z,96783.00
2022-11-24T22:06:44.724Z,96776.75
2022-11-24T22:09:46.739Z,96773.34
2022-11-24T22:12:48.296Z,96781.16
2022-11-24T22:15:58.320Z,96784.28
2022-11-24T22:19:00.087Z,96790.25
2022-11-24T22:22:01.744Z,96788.09
2022-11-24T22:25:03.405Z,96783.31
2022-11-24T22:28:04.986Z,96770.72
2022-11-24T22:31:07.253Z,96764.72
2022-11-24T22:34:08.969Z,96755.63
2022-11-24T22:37:10.517Z,96751.75
2022-11-24T22:40:12.089Z,96740.69
2022-11-24T22:43:15.094Z,96741.56
2022-11-24T22:46:20.113Z,96737.47
2022-11-24T22:49:21.667Z,96734.34
2022-11-24T22:52:23.205Z,96733.75
2022-11-24T22:55:24.811Z,96727.28
2022-11-24T22:58:26.350Z,96739.69
2022-11-24T23:01:28.354Z,96739.44
2022-11-24T23:04:29.957Z,96750.75
2022-11-24T23:07:31.581Z,96747.63
2022-11-24T23:10:33.131Z,96752.69
2022-11-24T23:13:34.821Z,96754.09
2022-11-24T23:16:36.502Z,96749.97
2022-11-24T23:19:38.222Z,96735.78
2022-11-24T23:22:39.762Z,96739.22
2022-11-24T23:25:41.349Z,96730.50
2022-11-24T23:28:45.873Z,96752.91
2022-11-24T23:31:47.486Z,96740.19
2022-11-24T23:34:49.031Z,96745.66
2022-11-24T23:38:07.111Z,96758.09
2022-11-24T23:41:10.900Z,96772.47
2022-11-24T23:44:12.404Z,96776.16
2022-11-24T23:47:13.976Z,96778.22
2022-11-24T23:50:15.496Z,96777.06
2022-11-24T23:53:17.011Z,96775.59
2022-11-24T23:56:19.744Z,96772.38
2022-11-24T23:59:22.636Z,96779.00
